Weather observations for the past three days for
Duplin County Airport
Imperial (Metric)
Date Time (edt) Wind (mph) Vis. (mi.) Weather Sky Cond. Temperature (ºF) Relative Humidity Wind Chill (°F) Heat Index (°F) Pressure Precipitation (in)
Air Dwpt 6 hour altimeter (in) sea level (mb) 1 hr 3 hr 6 hr
Max. Min.
05 08:55 SW 8 10.00 Fair CLR 82.4 77 84% 91 29.9 0.0
05 08:35 W 9 10.00 Fair CLR 80.6 77 89% 87 29.91 0.0
05 08:15 W 7 10.00 Fair CLR 78.8 77 94% 83 29.9 0.0
05 07:55 SW 9 7.00 Fair CLR 78.8 77 94% 83 29.9 0.0
05 07:35 SW 7 7.00 Fair CLR 77 75.2 94% 78 29.9 0.0
05 07:15 SW 6 7.00 Fair CLR 75.2 75.2 100% 73 29.89 0.0
05 06:55 SW 6 7.00 Fair CLR 75.2 75.2 100% 73 29.88 0.0
05 06:35 SW 5 10.00 Fair CLR 75.2 75.2 100% 73 29.88 0.0
05 06:15 SW 6 10.00 Fair CLR 75.2 75.2 100% 73 29.88 0.0
05 05:55 SW 5 7.00 Fair CLR 75.2 73.4 94% 74 29.88 0.0
05 05:35 SW 6 10.00 Fair CLR 75.2 73.4 94% 74 29.88 0.0
05 05:15 SW 5 10.00 Fair CLR 75.2 73.4 94% 74 29.88 0.0
05 04:55 SW 3 7.00 Fair CLR 75.2 73.4 94% 74 29.89 0.0
05 04:35 SW 3 10.00 Fair CLR 73.4 71.6 94% 29.89 0.0
05 04:15 Calm 10.00 Fair CLR 73.4 71.6 94% 29.89 0.0
05 03:55 SW 3 10.00 Fair CLR 73.4 69.8 89% 29.9 0.0
05 03:35 SW 3 10.00 Fair CLR 73.4 69.8 89% 29.91 0.0
05 03:15 SW 5 10.00 Fair CLR 73.4 69.8 89% 29.91 0.0
05 02:55 Calm 10.00 Fair CLR 73.4 69.8 89% 29.92 0.0
05 02:35 W 5 10.00 Fair CLR 73.4 69.8 89% 29.92 0.0
05 02:15 W 3 10.00 Fair CLR 73.4 69.8 89% 29.93 0.0
05 01:55 Calm 10.00 Fair CLR 71.6 69.8 94% 29.93 0.0
05 01:35 Calm 10.00 Fair CLR 73.4 69.8 89% 29.94 0.0
05 01:15 Calm 10.00 Fair CLR 73.4 69.8 89% 29.95 0.0
05 00:55 Calm 10.00 Fair CLR 75.2 69.8 83% 75 29.95 0.0
05 00:35 S 3 10.00 Fair CLR 77 69.8 79% 79 29.95 0.0
05 00:15 SW 6 10.00 Fair CLR 75.2 69.8 83% 75 29.95 0.0
04 23:55 S 3 10.00 Fair CLR 77 69.8 79% 79 29.98 0.0
04 23:35 Calm 10.00 Partly Cloudy SCT041 77 68 74% 79 30 0.0
04 23:15 Calm 10.00 Mostly Cloudy BKN041 BKN048 78.8 68 70% 81 30.03 0.0
04 22:55 NE 8 10.00 Mostly Cloudy SCT034 BKN042 BKN048 78.8 68 70% 81 30.03 0.0
04 22:35 NE 8 G 17 10.00 Overcast SCT024 OVC032 78.8 69.8 74% 81 30.04 0.0
04 22:15 NE 18 G 31 10.00 Mostly Cloudy BKN024 BKN030 BKN055 80.6 71.6 74% 85 30.03 0.0
04 21:55 S 3 10.00 Fair CLR 82.4 77 84% 91 29.99 0.0
04 21:35 S 3 10.00 Fair CLR 82.4 77 84% 91 29.98 0.0
04 21:15 SW 5 10.00 Fair CLR 82.4 75.2 79% 89 29.97 0.0
04 20:55 S 6 10.00 Fair CLR 78.8 75.2 89% 82 29.95 0.0
04 20:35 Calm 10.00 Fair CLR 78.8 75.2 89% 82 29.95 0.0
04 20:15 S 3 10.00 Fair CLR 82.4 75.2 79% 89 29.93 0.0
04 19:55 Calm 10.00 Fair CLR 84.2 77 79% 94 29.92 0.0
04 19:35 SW 3 10.00 Fair CLR 84.2 77 79% 94 29.93 0.0
04 19:15 S 3 10.00 Fair CLR 87.8 75.2 66% 98 29.92 0.0
04 18:55 SW 3 10.00 Fair CLR 89.6 77 67% 103 29.92 0.0
04 18:35 Calm 10.00 Fair CLR 91.4 75.2 59% 103 29.92 0.0
04 18:15 SW 7 10.00 Fair CLR 91.4 75.2 59% 103 29.93 0.0
04 17:55 SW 6 10.00 Fair CLR 93.2 75.2 56% 105 29.93 0.0
04 17:35 SW 12 10.00 Fair CLR 93.2 75.2 56% 105 29.92 0.0
04 17:15 S 6 7.00 Fair CLR 93.2 77 59% 107 29.91 0.0
04 16:55 SW 7 10.00 Fair CLR 95 77 56% 110 29.92 0.0
04 16:35 SW 14 G 17 10.00 Fair CLR 93.2 75.2 56% 105 29.93 0.0
04 16:15 SW 9 10.00 Fair CLR 93.2 75.2 56% 105 29.94 0.0
04 15:55 SW 10 10.00 Fair CLR 93.2 77 59% 107 29.95 0.0
04 15:35 W 8 7.00 Partly Cloudy SCT043 95 77 56% 110 29.96 0.0
04 15:15 SW 6 10.00 Partly Cloudy SCT043 93.2 77 59% 107 29.97 0.0
04 14:55 SW 10 7.00 Partly Cloudy SCT041 93.2 77 59% 107 29.98 0.0
04 14:35 W 7 10.00 Fair CLR 93.2 77 59% 107 29.99 0.0
04 14:15 SW 8 7.00 Fair CLR 91.4 77 63% 105 29.99 0.0
04 13:55 SW 9 10.00 Fair CLR 93.2 78.8 63% 110 30 0.0
04 13:35 W 7 10.00 Partly Cloudy SCT038 91.4 77 63% 105 30.01 0.0
04 13:15 W 7 10.00 Partly Cloudy SCT036 SCT043 91.4 77 63% 105 30.01 0.0
04 12:55 Calm 10.00 Partly Cloudy SCT034 91.4 77 63% 105 30.02 0.0
04 12:35 SW 6 10.00 Fair CLR 89.6 77 67% 103 30.02 0.0
04 12:15 SW 8 10.00 Fair CLR 89.6 77 67% 103 30.03 0.0
04 11:55 SW 10 10.00 Fair CLR 89.6 77 67% 103 30.04 0.0
04 11:35 SW 8 10.00 Fair CLR 87.8 77 70% 100 30.04 0.0
04 11:15 SW 8 7.00 Fair CLR 87.8 77 70% 100 30.04 0.0
04 10:55 SW 9 7.00 Fair CLR 87.8 77 70% 100 30.04 0.0
04 10:35 SW 9 10.00 Fair CLR 86 77 75% 97 30.04 0.0
04 10:15 W 7 10.00 Fair CLR 84.2 77 79% 94 30.04 0.0
04 09:55 W 10 10.00 Partly Cloudy SCT012 84.2 77 79% 94 30.04 0.0
04 09:35 SW 8 10.00 Partly Cloudy SCT008 SCT014 82.4 77 84% 91 30.04 0.0
04 09:15 SW 9 10.00 Partly Cloudy SCT006 80.6 78.8 94% 88 30.04 0.0
04 08:55 SW 9 7.00 Mostly Cloudy BKN003 78.8 78.8 100% 83 30.04 0.0
04 08:35 SW 7 7.00 Overcast with Haze OVC003 77 0 0% 30.04 0.0
04 08:15 SW 8 2.50 Fog/Mist OVC003 77 0 0% 30.04 0.0
04 07:55 SW 5 1.50 Fog/Mist OVC003 75.2 0 0% 30.04 0.0
04 07:35 SW 5 0.25 Fog OVC003 75.2 0 0% 30.03 0.0
04 07:15 Calm 0.50 Fog OVC003 75.2 0 0% 30.04 0.0
04 06:55 Calm 0.25 Fog OVC003 75.2 0 0% 30.03 0.0
04 06:35 Calm 0.75 Fog/Mist OVC003 75.2 0 0% 30.03 0.0
04 06:15 Calm 0.75 Fog/Mist OVC003 75.2 0 0% 30.03 0.0
04 05:55 Calm 0.50 Fog OVC003 75.2 0 0% 30.02 0.0
04 05:35 SW 3 0.50 Fog OVC003 75.2 0 0% 30.01 0.0
04 05:15 Calm 1.00 Fog/Mist OVC003 75.2 75.2 100% 73 30.01 0.0
04 04:55 Calm 7.00 Fog/Mist OVC003 75.2 75.2 100% 73 30.01 0.0
04 04:35 Calm 7.00 Fog/Mist OVC003 75.2 75.2 100% 73 30.01 0.0
04 03:55 Calm 7.00 Fog/Mist CLR 75.2 75.2 100% 73 30.01 0.0
04 03:35 Calm 7.00 Fair CLR 75.2 75.2 100% 73 30.01 0.0
04 03:15 Calm 7.00 Fair CLR 75.2 75.2 100% 73 30.02 0.0
04 02:55 Calm 7.00 Fair CLR 75.2 75.2 100% 73 30.02 0.0
04 02:35 Calm 10.00 Fair CLR 77 75.2 94% 78 30.03 0.0
04 02:15 SW 3 10.00 Fair CLR 77 75.2 94% 78 30.03 0.0
04 01:55 Calm 10.00 Fair CLR 77 77 100% 78 30.04 0.0
04 01:35 SW 3 10.00 Fair CLR 77 77 100% 78 30.04 0.0
04 01:15 SW 3 10.00 Fair CLR 77 77 100% 78 30.04 0.0
04 00:55 S 3 10.00 Fair CLR 77 77 100% 78 30.05 0.0
04 00:35 S 3 10.00 Fair CLR 77 77 100% 78 30.05 0.0
04 00:15 S 3 10.00 Fair CLR 77 75.2 94% 78 30.05 0.0
03 23:55 Calm 10.00 Fair CLR 78.8 75.2 89% 82 30.05 0.0
03 23:35 Calm 10.00 Fair CLR 78.8 75.2 89% 82 30.06 0.0
03 23:15 SW 3 10.00 Fair CLR 78.8 75.2 89% 82 30.05 0.0
03 22:55 Calm 10.00 Fair CLR 78.8 75.2 89% 82 30.06 0.0
03 22:35 S 3 10.00 Fair CLR 78.8 75.2 89% 82 30.06 0.0
03 22:15 S 3 10.00 Fair CLR 80.6 75.2 84% 86 30.06 0.0
03 21:55 S 3 10.00 Fair CLR 80.6 75.2 84% 86 30.05 0.0
03 21:35 S 6 10.00 Fair CLR 80.6 75.2 84% 86 30.05 0.0
03 21:15 S 3 10.00 Fair CLR 78.8 75.2 89% 82 30.04 0.0
03 20:55 S 3 10.00 Fair CLR 78.8 75.2 89% 82 30.03 0.0
03 20:35 S 5 10.00 Fair CLR 80.6 73.4 79% 85 30.02 0.0
03 20:15 S 3 10.00 Fair CLR 82.4 73.4 74% 88 30.01 0.0
03 19:55 S 6 10.00 Fair CLR 84.2 73.4 70% 91 29.99 0.0
03 19:35 S 7 10.00 Fair CLR 84.2 75.2 74% 92 29.99 0.0
03 19:15 S 5 10.00 Fair CLR 86 75.2 70% 95 29.99 0.0
03 18:55 S 5 10.00 Fair CLR 87.8 75.2 66% 98 30 0.0
03 18:35 S 6 10.00 Fair CLR 89.6 75.2 63% 100 30 0.0
03 18:15 S 9 10.00 Fair CLR 89.6 75.2 63% 100 30 0.0
03 17:55 S 7 7.00 Fair CLR 91.4 77 63% 105 30 0.0
03 17:35 S 8 10.00 Fair CLR 91.4 77 63% 105 29.99 0.0
03 17:15 S 6 7.00 Partly Cloudy SCT047 93.2 77 59% 107 29.99 0.0
03 16:55 S 6 10.00 Partly Cloudy SCT047 93.2 77 59% 107 30 0.0
03 16:35 S 7 7.00 Partly Cloudy SCT049 95 77 56% 110 30 0.0
03 16:15 S 5 7.00 Fair CLR 95 75.2 53% 107 30 0.0
03 15:55 S 8 7.00 Partly Cloudy SCT048 95 77 56% 110 30.01 0.0
03 15:35 S 8 7.00 Partly Cloudy SCT048 95 75.2 53% 107 30.02 0.0
03 15:15 S 8 10.00 Fair CLR 95 75.2 53% 107 30.03 0.0
03 14:55 S 5 7.00 Fair CLR 93.2 75.2 56% 105 30.03 0.0
03 14:35 S 6 7.00 Fair CLR 93.2 75.2 56% 105 30.04 0.0
03 14:15 S 6 7.00 Fair CLR 93.2 75.2 56% 105 30.04 0.0
03 13:55 S 5 7.00 Fair CLR 93.2 75.2 56% 105 30.05 0.0
03 13:35 S 5 10.00 Fair CLR 93.2 77 59% 107 30.05 0.0
03 13:15 SE 6 7.00 Fair CLR 91.4 77 63% 105 30.06 0.0
03 12:55 W 5 7.00 Fair CLR 91.4 75.2 59% 103 30.06 0.0
03 12:35 SW 5 10.00 Fair CLR 91.4 75.2 59% 103 30.07 0.0
03 12:15 SW 7 7.00 Fair CLR 91.4 77 63% 105 30.07 0.0
03 11:55 S 6 7.00 Fair CLR 91.4 75.2 59% 103 30.08 0.0
03 11:35 Calm 7.00 Fair CLR 89.6 73.4 59% 98 30.08 0.0
03 11:15 S 6 7.00 Fair CLR 89.6 75.2 63% 100 30.08 0.0
03 10:55 SW 8 7.00 Fair CLR 87.8 75.2 66% 98 30.08 0.0
03 10:35 SW 5 7.00 Fair CLR 87.8 73.4 62% 96 30.08 0.0
03 10:15 SW 3 7.00 Fair CLR 86 73.4 66% 93 30.08 0.0
03 09:55 SW 3 10.00 Fair CLR 86 73.4 66% 93 30.07 0.0
03 09:35 SW 6 10.00 Fair CLR 84.2 73.4 70% 91 30.07 0.0
03 09:15 W 5 10.00 Fair CLR 84.2 73.4 70% 91 30.07 0.0
03 08:55 Calm 7.00 Fair CLR 80.6 75.2 84% 86 30.08 0.0
03 08:35 SW 3 10.00 Fair CLR 78.8 75.2 89% 82 30.08 0.0
03 07:55 SW 3 7.00 Fog/Mist CLR 77 75.2 94% 78 30.08 0.0
03 07:35 Calm 5.00 Fog/Mist CLR 75.2 75.2 100% 73 30.07 0.0
03 07:15 Calm 7.00 Fog/Mist CLR 75.2 75.2 100% 73 30.07 0.0
03 06:55 Calm 7.00 Fog/Mist CLR 75.2 75.2 100% 73 30.06 0.0
03 06:35 S 3 7.00 Fair CLR 75.2 75.2 100% 73 30.06 0.0
03 06:15 SW 3 7.00 Fair CLR 75.2 75.2 100% 73 30.05 0.0
03 05:55 Calm 7.00 Fair with Haze CLR 75.2 0 0% 30.05 0.0
03 05:35 SW 3 5.00 Fog/Mist CLR 73.4 73.4 100% 30.05 0.0
03 05:15 Calm 7.00 Fog/Mist CLR 73.4 73.4 100% 30.05 0.0
03 04:55 Calm 5.00 Fair with Haze CLR 73.4 0 0% 30.05 0.0
03 04:35 Calm 5.00 Fog/Mist CLR 73.4 73.4 100% 30.04 0.0
03 04:15 Calm 5.00 Fog/Mist CLR 73.4 73.4 100% 30.04 0.0
03 03:55 Calm 7.00 Fog/Mist CLR 73.4 73.4 100% 30.04 0.0
03 03:35 Calm 5.00 Fair with Haze CLR 73.4 0 0% 30.04 0.0
03 03:15 Calm 5.00 Fair with Haze CLR 73.4 0 0% 30.03 0.0
03 02:55 Calm 5.00 Fair with Haze CLR 73.4 0 0% 30.03 0.0
03 02:35 Calm 4.00 Fog/Mist CLR 75.2 0 0% 30.03 0.0
03 02:15 Calm 5.00 Fog/Mist CLR 75.2 75.2 100% 73 30.04 0.0
03 01:55 Calm 5.00 Fog/Mist CLR 75.2 75.2 100% 73 30.05 0.0
03 01:35 Calm 5.00 Fog/Mist CLR 75.2 75.2 100% 73 30.05 0.0
03 01:15 Calm 7.00 Fog/Mist CLR 75.2 75.2 100% 73 30.04 0.0
03 00:55 Calm 7.00 Fog/Mist CLR 77 75.2 94% 78 30.05 0.0
03 00:35 SW 3 10.00 Fair CLR 77 77 100% 78 30.05 0.0
03 00:15 S 3 10.00 Fair CLR 78.8 77 94% 83 30.05 0.0
02 23:55 S 3 7.00 Fair CLR 78.8 77 94% 83 30.05 0.0 0.01
02 23:35 Calm 10.00 Fair CLR 78.8 77 94% 83 30.05 0.0 0.01
02 23:15 Calm 10.00 Fair CLR 78.8 77 94% 83 30.05 0.0 0.01
02 22:55 Calm 7.00 Partly Cloudy SCT060 78.8 78.8 100% 83 30.05 0.0
02 22:35 S 5 7.00 Fog/Mist CLR 78.8 78.8 100% 83 30.04 0.0
02 22:15 S 5 7.00 Fair CLR 80.6 78.8 94% 88 30.04 0.0
02 21:55 S 5 7.00 Fair CLR 80.6 78.8 94% 88 30.04 0.0 0.01
02 21:35 SW 7 7.00 Fair CLR 80.6 80.6 100% 89 30.04 0.0 0.01
02 21:15 S 3 4.00 Light Rain Fog/Mist SCT065 SCT100 80.6 80.6 100% 89 30.06 0.0 0.01
02 20:55 N 8 7.00 Light Rain Fog/Mist BKN065 BKN080 OVC100 80.6 80.6 100% 89 30.06 0.0 0.11
02 20:35 Calm 7.00 Light Rain SCT040 BKN065 BKN080 82.4 80.6 94% 94 30.05 0.0 0.1
02 20:15 S 7 2.50 Heavy Rain Fog/Mist SCT036 SCT046 BKN065 82.4 78.8 89% 92 30.04 0.0 0.09
02 19:55 S 6 7.00 Partly Cloudy SCT060 SCT085 87.8 78.8 75% 102 30.02 0.0
02 19:35 S 7 7.00 Partly Cloudy SCT060 SCT080 86 78.8 79% 99 30.02 0.0
02 19:15 S 3 7.00 Partly Cloudy SCT070 SCT080 87.8 78.8 75% 102 30.01 0.0
02 18:55 S 5 10.00 Partly Cloudy SCT080 89.6 78.8 71% 105 30.01 0.0
02 18:35 S 5 7.00 Fair CLR 87.8 80.6 79% 105 30.01 0.0
02 18:15 Calm 7.00 Fair CLR 93.2 80.6 67% 113 30.01 0.0
02 17:55 W 5 7.00 Partly Cloudy SCT065 96.8 73.4 47% 107 30.01 0.0
02 17:35 SW 5 7.00 Mostly Cloudy BKN055 95 73.4 50% 105 30 0.0
02 17:15 SE 5 7.00 Partly Cloudy SCT055 SCT080 95 77 56% 110 30 0.0
02 16:55 Calm 7.00 Mostly Cloudy BKN065 95 75.2 53% 107 30.01 0.0
02 16:35 Calm 10.00 Mostly Cloudy BKN060 BKN100 95 75.2 53% 107 30.01 0.0
02 16:15 S 3 10.00 Mostly Cloudy SCT060 BKN100 95 75.2 53% 107 30.02 0.0
02 15:55 SE 3 7.00 Partly Cloudy SCT060 95 73.4 50% 105 30.03 0.0
02 15:35 N 6 7.00 Mostly Cloudy BKN060 96.8 75.2 50% 110 30.03 0.0
02 15:15 Calm 10.00 Partly Cloudy SCT050 95 75.2 53% 107 30.04 0.0
02 14:55 Calm 7.00 Partly Cloudy SCT050 93.2 77 59% 107 30.04 0.0
02 14:35 Calm 7.00 Partly Cloudy SCT050 95 75.2 53% 107 30.05 0.0
02 14:15 W 7 10.00 Fair CLR 95 77 56% 110 30.05 0.0
02 13:55 Calm 7.00 Fair CLR 95 77 56% 110 30.05 0.0
02 13:35 NE 3 7.00 Fair CLR 93.2 75.2 56% 105 30.05 0.0
02 13:15 SW 3 7.00 Fair CLR 93.2 77 59% 107 30.06 0.0
02 12:55 SW 5 7.00 Fair CLR 91.4 77 63% 105 30.06 0.0
02 12:35 Calm 7.00 Fair CLR 91.4 77 63% 105 30.07 0.0
02 12:15 W 3 7.00 Fair CLR 91.4 77 63% 105 30.07 0.0
02 11:55 Calm 7.00 Fair CLR 91.4 75.2 59% 103 30.07 0.0
02 11:35 Calm 7.00 Fair CLR 89.6 77 67% 103 30.08 0.0
02 11:15 Calm 7.00 Fair CLR 89.6 77 67% 103 30.08 0.0
02 10:55 SW 6 7.00 Fair CLR 87.8 77 70% 100 30.07 0.0
02 10:35 Calm 7.00 Fair CLR 86 75.2 70% 95 30.07 0.0
02 10:15 SW 6 7.00 Fair CLR 86 75.2 70% 95 30.07 0.0
02 09:55 SW 7 7.00 Fair CLR 84.2 75.2 74% 92 30.07 0.0
02 09:35 SW 7 10.00 Fair CLR 84.2 75.2 74% 92 30.07 0.0
02 09:15 SW 6 10.00 Fair CLR 82.4 75.2 79% 89 30.08 0.0
Date Time (edt) Wind (mph) Vis. (mi.) Weather Sky Cond. Air Dwpt Max. Min. Relative Humidity Wind Chill (°F) Heat Index (°F) altimeter (in) sea level (mb) 1 hr 3 hr 6 hr
6 hour
Temperature (ºF) Pressure Precipitation (in)